createdAt,value
2019-02-11T00:02:07.798Z,61.73
2019-02-11T00:04:39.458Z,61.63
2019-02-11T00:07:11.029Z,61.21
2019-02-11T00:09:42.683Z,61.00
2019-02-11T00:12:14.251Z,61.20
2019-02-11T00:14:45.907Z,61.21
2019-02-11T00:17:17.553Z,61.52
2019-02-11T00:19:49.163Z,61.56
2019-02-11T00:22:20.864Z,61.14
2019-02-11T00:24:52.435Z,61.24
2019-02-11T00:27:24.191Z,61.43
2019-02-11T00:29:55.898Z,61.33
2019-02-11T00:32:27.899Z,61.46
2019-02-11T00:34:59.623Z,61.68
2019-02-11T00:37:31.561Z,61.93
2019-02-11T00:40:03.121Z,61.64
2019-02-11T00:42:34.914Z,61.67
2019-02-11T00:45:08.706Z,61.74
2019-02-11T00:47:40.377Z,62.09
2019-02-11T00:50:12.520Z,62.14
2019-02-11T00:52:44.151Z,61.91
2019-02-11T00:55:15.796Z,61.67
2019-02-11T00:57:47.516Z,61.95
2019-02-11T01:00:19.242Z,61.61
2019-02-11T01:02:51.645Z,61.60
2019-02-11T01:05:23.229Z,61.68
2019-02-11T01:07:54.827Z,61.35
2019-02-11T01:10:26.504Z,61.50
2019-02-11T01:12:58.137Z,61.70
2019-02-11T01:15:29.732Z,61.32
2019-02-11T01:18:01.567Z,61.16
2019-02-11T01:20:33.160Z,61.17
2019-02-11T01:23:04.775Z,61.25
2019-02-11T01:25:38.246Z,61.13
2019-02-11T01:28:09.937Z,61.06
2019-02-11T01:30:41.627Z,60.87
2019-02-11T01:33:13.463Z,60.92
2019-02-11T01:35:45.297Z,60.59
2019-02-11T01:38:16.884Z,60.99
2019-02-11T01:40:48.534Z,61.24
2019-02-11T01:43:20.129Z,61.30
2019-02-11T01:45:51.844Z,60.79
2019-02-11T01:48:24.152Z,60.76
2019-02-11T01:50:55.741Z,60.54
2019-02-11T01:53:27.401Z,60.71
2019-02-11T01:55:59.045Z,60.56
2019-02-11T01:58:30.802Z,60.70
2019-02-11T02:01:02.437Z,61.19
2019-02-11T02:03:34.318Z,61.00
2019-02-11T02:06:06.061Z,61.17
2019-02-11T02:08:37.708Z,61.17
2019-02-11T02:11:09.290Z,61.38
2019-02-11T02:13:44.919Z,61.79
2019-02-11T02:16:14.110Z,61.78
2019-02-11T02:18:45.977Z,61.89
2019-02-11T02:21:17.659Z,61.37
2019-02-11T02:23:49.351Z,61.46
2019-02-11T02:26:21.008Z,61.08
2019-02-11T02:28:52.584Z,61.21
2019-02-11T02:31:24.236Z,60.99
2019-02-11T02:33:56.206Z,61.22
2019-02-11T02:36:28.036Z,61.62
2019-02-11T02:38:59.603Z,61.31
2019-02-11T02:41:31.249Z,61.38
2019-02-11T02:44:02.910Z,61.70
2019-02-11T02:46:35.282Z,61.83
2019-02-11T02:49:07.372Z,61.88
2019-02-11T02:51:39.101Z,61.88
2019-02-11T02:54:10.749Z,62.12
2019-02-11T02:56:42.316Z,61.42
2019-02-11T02:59:13.907Z,60.97
2019-02-11T03:01:45.494Z,61.02
2019-02-11T03:04:17.115Z,61.02
2019-02-11T03:06:49.123Z,61.21
2019-02-11T03:09:20.693Z,61.03
2019-02-11T03:11:52.284Z,60.86
2019-02-11T03:14:23.921Z,60.65
2019-02-11T03:16:55.491Z,60.62
2019-02-11T03:19:27.067Z,60.43
2019-02-11T03:21:58.768Z,60.21
2019-02-11T03:24:30.429Z,60.26
2019-02-11T03:27:02.022Z,60.27
2019-02-11T03:29:33.685Z,60.03
2019-02-11T03:32:05.272Z,60.45
2019-02-11T03:34:39.646Z,60.30
2019-02-11T03:37:11.315Z,59.97
2019-02-11T03:39:42.925Z,60.38
2019-02-11T03:42:14.504Z,60.64
2019-02-11T03:44:46.155Z,60.39
2019-02-11T03:47:17.730Z,60.41
2019-02-11T03:49:49.386Z,60.17
2019-02-11T03:52:20.960Z,60.40
2019-02-11T03:54:52.934Z,59.97
2019-02-11T03:57:24.568Z,60.13
2019-02-11T03:59:56.154Z,59.69
2019-02-11T04:02:28.422Z,60.29
2019-02-11T04:05:00.285Z,60.01
2019-02-11T04:07:31.920Z,60.41
2019-02-11T04:10:04.233Z,60.14
2019-02-11T04:12:35.824Z,60.26
2019-02-11T04:15:09.426Z,59.84
2019-02-11T04:17:41.018Z,59.42
2019-02-11T04:20:13.651Z,59.12
2019-02-11T04:22:45.292Z,59.30
2019-02-11T04:25:16.953Z,59.19
2019-02-11T04:27:48.609Z,59.19
2019-02-11T04:30:20.369Z,59.32
2019-02-11T04:32:52.063Z,59.03
2019-02-11T04:35:23.654Z,58.53
2019-02-11T04:37:55.308Z,59.09
2019-02-11T04:40:26.928Z,58.80
2019-02-11T04:42:58.553Z,58.94
2019-02-11T04:45:30.134Z,59.11
2019-02-11T04:48:01.845Z,58.95
2019-02-11T04:50:33.406Z,58.75
2019-02-11T04:53:04.988Z,58.72
2019-02-11T04:55:36.592Z,59.29
2019-02-11T04:58:08.223Z,59.67
2019-02-11T05:00:39.946Z,60.01
2019-02-11T05:03:13.176Z,60.42
2019-02-11T05:05:44.771Z,60.94
2019-02-11T05:08:16.396Z,61.74
2019-02-11T05:10:47.972Z,61.80
2019-02-11T05:13:19.705Z,62.11
2019-02-11T05:15:51.346Z,62.50
2019-02-11T05:18:23.382Z,63.39
2019-02-11T05:20:55.187Z,62.96
2019-02-11T05:23:26.750Z,63.72
2019-02-11T05:25:58.457Z,64.21
2019-02-11T05:28:30.014Z,63.98
2019-02-11T05:31:01.694Z,63.99
2019-02-11T05:33:33.358Z,63.96
2019-02-11T05:36:04.994Z,63.80
2019-02-11T05:38:36.539Z,63.57
2019-02-11T05:41:08.268Z,63.64
2019-02-11T05:43:39.893Z,63.08
2019-02-11T05:46:11.530Z,63.02
2019-02-11T05:48:43.079Z,63.08
2019-02-11T05:51:14.628Z,63.00
2019-02-11T05:53:46.186Z,62.73
2019-02-11T05:56:17.759Z,63.27
2019-02-11T05:58:49.359Z,63.08
2019-02-11T06:01:20.983Z,63.48
2019-02-11T06:03:52.558Z,63.55
2019-02-11T06:06:24.148Z,63.06
2019-02-11T06:08:55.749Z,62.81
2019-02-11T06:11:27.389Z,63.04
2019-02-11T06:13:58.973Z,64.19
2019-02-11T06:16:30.527Z,65.27
2019-02-11T06:19:02.207Z,66.14
2019-02-11T06:21:33.853Z,67.24
2019-02-11T06:24:05.425Z,67.14
2019-02-11T06:26:37.057Z,66.89
2019-02-11T06:29:08.607Z,66.55
2019-02-11T06:31:40.171Z,66.91
2019-02-11T06:34:11.817Z,67.70
2019-02-11T06:36:43.454Z,68.43
2019-02-11T06:39:15.062Z,68.37
2019-02-11T06:41:46.712Z,68.88
2019-02-11T06:44:18.359Z,69.92
2019-02-11T06:46:52.691Z,69.86
2019-02-11T06:49:24.276Z,70.31
2019-02-11T06:51:55.850Z,70.86
2019-02-11T06:54:27.491Z,70.90
2019-02-11T06:56:59.129Z,71.59
2019-02-11T06:59:30.771Z,71.57
2019-02-11T07:02:02.436Z,71.52
2019-02-11T07:04:34.081Z,71.64
2019-02-11T07:07:05.724Z,71.51
2019-02-11T07:09:37.290Z,71.10
2019-02-11T07:12:08.960Z,71.27
2019-02-11T07:14:40.603Z,71.72
2019-02-11T07:17:12.203Z,71.21
2019-02-11T07:19:43.782Z,71.65
2019-02-11T07:22:15.345Z,70.87
2019-02-11T07:24:46.902Z,70.34
2019-02-11T07:27:18.482Z,70.90
2019-02-11T07:29:50.071Z,71.23
2019-02-11T07:32:21.749Z,71.03
2019-02-11T07:34:54.180Z,71.56
2019-02-11T07:37:25.775Z,71.20
2019-02-11T07:39:57.428Z,71.43
2019-02-11T07:42:33.617Z,71.83
2019-02-11T07:45:12.883Z,71.99
2019-02-11T07:47:46.152Z,72.46
2019-02-11T07:50:17.720Z,72.08
2019-02-11T07:52:49.299Z,72.08
2019-02-11T07:55:20.968Z,71.24
2019-02-11T07:57:52.550Z,71.13
2019-02-11T08:00:25.980Z,71.28
2019-02-11T08:02:57.536Z,71.01
2019-02-11T08:05:29.184Z,71.03
2019-02-11T08:08:00.765Z,70.89
2019-02-11T08:10:32.401Z,71.13
2019-02-11T08:13:04.082Z,72.17
2019-02-11T08:15:38.651Z,72.86
2019-02-11T08:18:08.926Z,72.74
2019-02-11T08:20:40.571Z,71.88
2019-02-11T08:23:13.811Z,72.72
2019-02-11T08:25:45.519Z,72.67
2019-02-11T08:28:19.494Z,72.40
2019-02-11T08:30:50.381Z,73.45
2019-02-11T08:33:22.019Z,73.78
2019-02-11T08:35:53.607Z,73.37
2019-02-11T08:38:25.162Z,73.10
2019-02-11T08:40:56.747Z,73.54
2019-02-11T08:43:28.463Z,73.88
2019-02-11T08:46:00.142Z,73.62
2019-02-11T08:48:31.730Z,74.21
2019-02-11T08:51:03.436Z,74.27
2019-02-11T08:53:35.069Z,74.21
2019-02-11T08:56:06.710Z,74.36
2019-02-11T08:58:38.475Z,74.26
2019-02-11T09:01:10.115Z,74.59
2019-02-11T09:03:41.818Z,74.78
2019-02-11T09:06:13.928Z,75.06
2019-02-11T09:08:45.518Z,75.06
2019-02-11T09:11:17.099Z,75.04
2019-02-11T09:13:48.757Z,74.98
2019-02-11T09:16:20.512Z,75.24
2019-02-11T09:18:52.197Z,75.30
2019-02-11T09:21:23.838Z,74.98
2019-02-11T09:23:55.473Z,74.77
2019-02-11T09:26:27.159Z,74.32
2019-02-11T09:28:58.807Z,74.49
2019-02-11T09:31:30.448Z,74.75
2019-02-11T09:34:02.020Z,74.84
2019-02-11T09:36:35.309Z,74.27
2019-02-11T09:39:07.445Z,74.43
2019-02-11T09:41:39.009Z,74.20
2019-02-11T09:44:10.576Z,74.03
2019-02-11T09:46:42.213Z,73.81
2019-02-11T09:49:13.962Z,73.59
2019-02-11T09:51:46.689Z,73.03
2019-02-11T09:54:18.397Z,72.76
2019-02-11T09:56:50.128Z,72.92
2019-02-11T09:59:22.085Z,73.05
2019-02-11T10:01:53.733Z,73.20
2019-02-11T10:04:25.508Z,72.90
2019-02-11T10:06:57.349Z,72.72
2019-02-11T10:09:28.990Z,73.17
2019-02-11T10:12:00.873Z,72.97
2019-02-11T10:14:32.711Z,72.95
2019-02-11T10:17:04.825Z,72.57
2019-02-11T10:19:36.431Z,72.95
2019-02-11T10:22:08.004Z,73.19
2019-02-11T10:24:39.781Z,72.22
2019-02-11T10:27:11.725Z,71.86
2019-02-11T10:29:43.301Z,71.33
2019-02-11T10:32:14.957Z,71.65
2019-02-11T10:34:46.699Z,71.11
2019-02-11T10:37:18.288Z,70.72
2019-02-11T10:39:49.894Z,70.23
2019-02-11T10:42:21.548Z,70.48
2019-02-11T10:44:53.205Z,69.53
2019-02-11T10:47:24.918Z,68.74
2019-02-11T10:49:56.486Z,68.35
2019-02-11T10:52:28.054Z,67.73
2019-02-11T10:54:59.644Z,67.97
2019-02-11T10:57:31.220Z,67.77
2019-02-11T11:00:02.869Z,67.97
2019-02-11T11:02:36.031Z,67.93
2019-02-11T11:05:11.460Z,67.93
2019-02-11T11:07:43.405Z,69.03
2019-02-11T11:10:19.797Z,68.78
2019-02-11T11:12:51.470Z,69.01
2019-02-11T11:15:23.208Z,68.68
2019-02-11T11:17:54.888Z,68.94
2019-02-11T11:20:27.729Z,69.08
2019-02-11T11:22:59.305Z,68.91
2019-02-11T11:25:30.972Z,68.60
2019-02-11T11:28:02.645Z,68.72
2019-02-11T11:30:34.255Z,68.31
2019-02-11T11:33:05.822Z,67.83
2019-02-11T11:35:37.683Z,67.43
2019-02-11T11:38:09.598Z,67.04
2019-02-11T11:40:42.656Z,66.13
2019-02-11T11:43:14.371Z,66.32
2019-02-11T11:45:57.971Z,64.74
2019-02-11T11:48:43.867Z,64.90
2019-02-11T11:51:18.557Z,64.30
2019-02-11T11:53:52.356Z,64.60
2019-02-11T11:56:25.837Z,64.42
2019-02-11T11:58:58.226Z,64.44
2019-02-11T12:01:29.850Z,64.97
2019-02-11T12:04:01.882Z,63.86
2019-02-11T12:06:35.061Z,63.73
2019-02-11T12:09:07.108Z,64.91
2019-02-11T12:11:38.789Z,65.72
2019-02-11T12:14:10.387Z,65.08
2019-02-11T12:16:56.293Z,64.32
2019-02-11T12:19:15.459Z,63.84
2019-02-11T12:21:47.097Z,63.26
2019-02-11T12:24:18.677Z,62.64
2019-02-11T12:26:50.259Z,63.76
2019-02-11T12:29:21.970Z,63.69
2019-02-11T12:31:53.521Z,62.60
2019-02-11T12:34:25.143Z,62.11
2019-02-11T12:36:56.785Z,62.11
2019-02-11T12:39:28.518Z,62.13
2019-02-11T12:42:00.381Z,62.40
2019-02-11T12:44:32.098Z,61.67
2019-02-11T12:47:13.883Z,62.81
2019-02-11T12:49:37.096Z,62.95
2019-02-11T12:52:08.744Z,62.75
2019-02-11T12:54:40.381Z,63.28
2019-02-11T12:57:12.215Z,62.68
2019-02-11T12:59:44.868Z,62.67
2019-02-11T13:02:17.496Z,62.24
2019-02-11T13:04:49.074Z,61.94
2019-02-11T13:07:20.742Z,62.29
2019-02-11T13:09:52.329Z,61.14
2019-02-11T13:12:24.290Z,61.40
2019-02-11T13:15:09.432Z,61.04
2019-02-11T13:17:41.059Z,60.93
2019-02-11T13:20:17.600Z,61.63
2019-02-11T13:22:49.312Z,61.43
2019-02-11T13:25:20.890Z,61.84
2019-02-11T13:27:52.454Z,61.79
2019-02-11T13:30:26.066Z,61.68
2019-02-11T13:32:59.875Z,61.20
2019-02-11T13:35:43.603Z,61.40
2019-02-11T13:38:15.245Z,61.89
2019-02-11T13:40:46.929Z,62.05
2019-02-11T13:43:19.573Z,61.96
2019-02-11T13:45:51.201Z,61.18
2019-02-11T13:48:23.329Z,61.82
2019-02-11T13:50:54.840Z,61.88
2019-02-11T13:53:26.434Z,61.66
2019-02-11T13:55:59.063Z,60.93
2019-02-11T13:58:30.779Z,62.07
2019-02-11T14:01:02.427Z,63.57
2019-02-11T14:03:34.566Z,64.46
2019-02-11T14:06:06.287Z,64.49
2019-02-11T14:08:37.904Z,65.06
2019-02-11T14:11:09.577Z,64.90
2019-02-11T14:13:41.242Z,65.30
2019-02-11T14:16:12.807Z,64.57
2019-02-11T14:18:44.379Z,64.80
2019-02-11T14:21:16.432Z,64.31
2019-02-11T14:23:48.075Z,64.27
2019-02-11T14:26:19.895Z,64.02
2019-02-11T14:28:51.582Z,64.51
2019-02-11T14:31:23.386Z,64.13
2019-02-11T14:33:55.216Z,63.53
2019-02-11T14:36:27.109Z,63.31
2019-02-11T14:38:59.065Z,63.62
2019-02-11T14:41:30.854Z,62.88
2019-02-11T14:44:02.766Z,63.24
2019-02-11T14:46:34.440Z,63.48
2019-02-11T14:49:06.193Z,63.71
2019-02-11T14:51:38.196Z,63.81
2019-02-11T14:54:10.054Z,63.98
2019-02-11T14:56:42.966Z,63.95
2019-02-11T14:59:14.537Z,64.08
2019-02-11T15:01:46.219Z,64.30
2019-02-11T15:04:18.305Z,64.46
2019-02-11T15:06:49.883Z,66.80
2019-02-11T15:09:21.505Z,67.86
2019-02-11T15:11:53.167Z,69.32
2019-02-11T15:14:24.916Z,70.31
2019-02-11T15:17:09.548Z,71.39
2019-02-11T15:19:41.335Z,72.76
2019-02-11T15:22:12.958Z,73.23
2019-02-11T15:24:44.943Z,73.37
2019-02-11T15:27:17.501Z,73.46
2019-02-11T15:29:49.344Z,72.75
2019-02-11T15:32:22.573Z,72.14
2019-02-11T15:34:55.638Z,72.06
2019-02-11T15:37:29.584Z,71.80
2019-02-11T15:40:01.277Z,71.44
2019-02-11T15:42:34.091Z,70.96
2019-02-11T15:45:10.441Z,71.42
2019-02-11T15:47:42.220Z,71.19
2019-02-11T15:50:18.319Z,71.82
2019-02-11T15:52:50.054Z,71.13
2019-02-11T15:55:22.162Z,68.47
2019-02-11T15:57:53.767Z,68.66
2019-02-11T16:00:27.065Z,68.41
2019-02-11T16:02:59.769Z,68.51
2019-02-11T16:05:31.498Z,67.93
2019-02-11T16:08:03.647Z,68.25
2019-02-11T16:10:35.330Z,68.99
2019-02-11T16:13:07.411Z,69.63
2019-02-11T16:15:39.069Z,70.70
2019-02-11T16:18:10.621Z,71.36
2019-02-11T16:20:42.185Z,71.26
2019-02-11T16:23:13.920Z,71.39
2019-02-11T16:25:46.237Z,70.78
2019-02-11T16:28:17.879Z,69.79
2019-02-11T16:30:49.470Z,69.28
2019-02-11T16:33:21.054Z,69.24
2019-02-11T16:35:52.769Z,68.20
2019-02-11T16:38:27.681Z,68.02
2019-02-11T16:40:59.391Z,67.37
2019-02-11T16:43:32.724Z,66.91
2019-02-11T16:46:04.300Z,65.84
2019-02-11T16:48:35.902Z,65.40
2019-02-11T16:51:07.455Z,65.71
2019-02-11T16:53:39.386Z,64.92
2019-02-11T16:56:11.863Z,64.72
2019-02-11T16:58:43.492Z,64.74
2019-02-11T17:01:15.224Z,64.51
2019-02-11T17:03:46.870Z,64.06
2019-02-11T17:06:18.601Z,64.25
2019-02-11T17:08:51.334Z,63.57
2019-02-11T17:11:23.526Z,63.55
2019-02-11T17:13:55.177Z,63.99
2019-02-11T17:16:26.792Z,63.51
2019-02-11T17:18:58.399Z,63.09
2019-02-11T17:21:31.944Z,63.37
2019-02-11T17:24:04.078Z,63.87
2019-02-11T17:26:35.667Z,64.07
2019-02-11T17:29:07.266Z,64.70
2019-02-11T17:31:39.475Z,64.32
2019-02-11T17:34:13.755Z,64.94
2019-02-11T17:36:45.463Z,65.41
2019-02-11T17:39:18.354Z,64.92
2019-02-11T17:41:50.145Z,65.26
2019-02-11T17:44:21.899Z,64.89
2019-02-11T17:46:53.600Z,64.69
2019-02-11T17:49:25.340Z,64.35
2019-02-11T17:51:57.008Z,65.07
2019-02-11T17:54:29.050Z,65.31
2019-02-11T17:57:04.824Z,65.70
2019-02-11T17:59:38.348Z,66.09
2019-02-11T18:02:11.641Z,66.44
2019-02-11T18:04:44.074Z,66.73
2019-02-11T18:07:15.650Z,66.68
2019-02-11T18:09:50.203Z,66.70
2019-02-11T18:12:21.849Z,67.18
2019-02-11T18:14:53.448Z,67.17
2019-02-11T18:17:25.176Z,67.59
2019-02-11T18:19:56.793Z,67.63
2019-02-11T18:22:28.513Z,67.84
2019-02-11T18:25:00.371Z,67.85
2019-02-11T18:27:38.023Z,67.87
2019-02-11T18:30:17.254Z,67.62
2019-02-11T18:32:52.513Z,67.73
2019-02-11T18:35:24.321Z,67.98
2019-02-11T18:37:56.054Z,68.03
2019-02-11T18:40:27.628Z,68.26
2019-02-11T18:42:59.297Z,68.15
2019-02-11T18:45:30.901Z,67.83
2019-02-11T18:48:02.481Z,68.02
2019-02-11T18:50:34.118Z,67.82
2019-02-11T18:53:05.779Z,68.03
2019-02-11T18:55:37.582Z,67.57
2019-02-11T18:58:09.250Z,67.50
2019-02-11T19:00:41.269Z,67.78
2019-02-11T19:03:13.554Z,67.20
2019-02-11T19:05:45.342Z,67.51
2019-02-11T19:08:16.968Z,67.50
2019-02-11T19:10:48.585Z,67.85
2019-02-11T19:13:21.195Z,67.87
2019-02-11T19:15:52.779Z,68.00
2019-02-11T19:18:24.465Z,68.13
2019-02-11T19:20:56.291Z,67.85
2019-02-11T19:23:27.956Z,68.38
2019-02-11T19:25:59.656Z,68.78
2019-02-11T19:28:31.296Z,68.80
2019-02-11T19:31:03.014Z,68.75
2019-02-11T19:33:34.770Z,69.03
2019-02-11T19:36:06.507Z,69.33
2019-02-11T19:38:38.379Z,68.90
2019-02-11T19:41:10.016Z,68.95
2019-02-11T19:43:41.705Z,68.90
2019-02-11T19:46:13.343Z,68.78
2019-02-11T19:48:44.905Z,68.94
2019-02-11T19:51:16.490Z,69.20
2019-02-11T19:53:48.079Z,69.53
2019-02-11T19:56:19.669Z,69.64
2019-02-11T19:58:51.420Z,70.13
2019-02-11T20:01:23.388Z,70.68
2019-02-11T20:03:55.006Z,70.71
2019-02-11T20:06:26.595Z,71.35
2019-02-11T20:08:58.328Z,71.30
2019-02-11T20:11:30.031Z,71.75
2019-02-11T20:14:01.746Z,72.00
2019-02-11T20:16:34.359Z,72.33
2019-02-11T20:19:13.518Z,72.56
2019-02-11T20:21:45.169Z,72.99
2019-02-11T20:24:16.780Z,72.74
2019-02-11T20:26:48.413Z,72.41
2019-02-11T20:29:20.075Z,71.79
2019-02-11T20:31:52.169Z,71.55
2019-02-11T20:34:25.154Z,70.00
2019-02-11T20:36:56.914Z,70.57
2019-02-11T20:39:28.588Z,69.29
2019-02-11T20:42:00.252Z,69.32
2019-02-11T20:44:32.628Z,69.56
2019-02-11T20:47:04.400Z,69.53
2019-02-11T20:49:36.062Z,69.21
2019-02-11T20:52:07.691Z,68.79
2019-02-11T20:54:39.533Z,68.90
2019-02-11T20:57:11.319Z,69.09
2019-02-11T20:59:42.972Z,69.30
2019-02-11T21:02:15.874Z,69.72
2019-02-11T21:04:49.248Z,69.24
2019-02-11T21:07:21.895Z,69.82
2019-02-11T21:09:53.477Z,70.42
2019-02-11T21:12:25.198Z,70.52
2019-02-11T21:14:57.393Z,71.12
2019-02-11T21:17:28.998Z,71.65
2019-02-11T21:20:00.711Z,71.96
2019-02-11T21:22:32.345Z,71.75
2019-02-11T21:25:04.521Z,72.14
2019-02-11T21:27:36.141Z,72.41
2019-02-11T21:30:11.927Z,72.39
2019-02-11T21:32:43.481Z,72.30
2019-02-11T21:35:15.117Z,71.78
2019-02-11T21:37:46.931Z,71.47
2019-02-11T21:40:18.576Z,71.63
2019-02-11T21:42:50.228Z,71.48
2019-02-11T21:45:21.824Z,70.06
2019-02-11T21:47:53.541Z,69.48
2019-02-11T21:50:26.975Z,69.21
2019-02-11T21:52:58.403Z,67.90
2019-02-11T21:55:30.119Z,67.65
2019-02-11T21:58:01.702Z,66.92
2019-02-11T22:00:33.347Z,66.78
2019-02-11T22:03:05.123Z,67.15
2019-02-11T22:05:36.785Z,67.33
2019-02-11T22:08:08.425Z,67.39
2019-02-11T22:10:40.012Z,67.50
2019-02-11T22:13:11.751Z,65.81
2019-02-11T22:15:44.612Z,64.73
2019-02-11T22:18:16.817Z,63.67
2019-02-11T22:20:48.558Z,64.37
2019-02-11T22:23:20.213Z,64.54
2019-02-11T22:25:51.805Z,64.51
2019-02-11T22:28:23.455Z,62.85
2019-02-11T22:30:55.641Z,61.67
2019-02-11T22:33:27.321Z,61.34
2019-02-11T22:35:59.065Z,60.98
2019-02-11T22:38:30.648Z,60.99
2019-02-11T22:41:02.312Z,61.05
2019-02-11T22:43:34.197Z,60.72
2019-02-11T22:46:06.464Z,60.38
2019-02-11T22:48:38.071Z,60.22
2019-02-11T22:51:11.288Z,60.00
2019-02-11T22:53:43.940Z,59.54
2019-02-11T22:56:15.497Z,60.23
2019-02-11T22:58:48.642Z,60.68
2019-02-11T23:01:20.290Z,61.14
2019-02-11T23:03:52.018Z,60.97
2019-02-11T23:06:23.598Z,61.20
2019-02-11T23:08:55.247Z,60.64
2019-02-11T23:11:26.907Z,60.96
2019-02-11T23:13:58.494Z,61.08
2019-02-11T23:16:30.087Z,61.40
2019-02-11T23:19:01.724Z,61.71
2019-02-11T23:21:33.383Z,61.40
2019-02-11T23:24:05.067Z,61.84
2019-02-11T23:26:38.333Z,62.19
2019-02-11T23:29:10.001Z,62.35
2019-02-11T23:31:41.645Z,62.92
2019-02-11T23:34:13.310Z,63.05
2019-02-11T23:36:44.963Z,63.41
2019-02-11T23:39:16.735Z,63.33
2019-02-11T23:41:48.350Z,63.48
2019-02-11T23:44:20.010Z,62.97
2019-02-11T23:46:51.605Z,63.28
2019-02-11T23:49:23.177Z,63.51
2019-02-11T23:51:54.819Z,63.67
2019-02-11T23:54:26.445Z,63.60
2019-02-11T23:56:58.011Z,63.79
2019-02-11T23:59:29.639Z,64.01
